createdAt,value
2022-09-10T00:02:13.627Z,4.03
2022-09-10T00:04:40.753Z,3.40
2022-09-10T00:07:09.480Z,3.25
2022-09-10T00:09:36.311Z,5.57
2022-09-10T00:12:05.303Z,2.58
2022-09-10T00:14:33.724Z,3.60
2022-09-10T00:17:00.505Z,3.60
2022-09-10T00:19:28.129Z,3.40
2022-09-10T00:21:54.836Z,3.58
2022-09-10T00:24:22.601Z,2.67
2022-09-10T00:26:49.885Z,3.75
2022-09-10T00:29:17.150Z,4.38
2022-09-10T00:31:47.530Z,2.67
2022-09-10T00:34:14.562Z,4.28
2022-09-10T00:36:43.148Z,3.55
2022-09-10T00:39:18.601Z,1.85
2022-09-10T00:41:48.213Z,3.88
2022-09-10T00:44:40.150Z,2.25
2022-09-10T00:47:14.457Z,2.28
2022-09-10T00:49:48.153Z,3.25
2022-09-10T00:52:17.087Z,2.20
2022-09-10T00:54:47.102Z,4.50
2022-09-10T00:57:22.161Z,2.55
2022-09-10T00:59:59.799Z,1.60
2022-09-10T01:02:28.057Z,2.72
2022-09-10T01:04:58.426Z,3.65
2022-09-10T01:07:30.078Z,4.55
2022-09-10T01:10:00.033Z,2.35
2022-09-10T01:12:57.674Z,2.65
2022-09-10T01:15:43.286Z,4.22
2022-09-10T01:18:30.238Z,3.53
2022-09-10T01:21:06.915Z,3.20
2022-09-10T01:24:12.439Z,4.18
2022-09-10T01:26:45.542Z,2.88
2022-09-10T01:29:30.499Z,1.67
2022-09-10T01:32:32.059Z,2.35
2022-09-10T01:35:22.745Z,4.10
2022-09-10T01:37:59.658Z,2.53
2022-09-10T01:40:30.724Z,2.50
2022-09-10T01:43:07.185Z,2.15
2022-09-10T01:45:55.095Z,2.53
2022-09-10T01:48:54.751Z,3.03
2022-09-10T01:51:34.503Z,3.45
2022-09-10T01:54:26.728Z,1.58
2022-09-10T01:57:11.510Z,1.58
2022-09-10T02:00:00.140Z,3.95
2022-09-10T02:02:36.967Z,2.45
2022-09-10T02:05:06.713Z,2.97
2022-09-10T02:07:36.311Z,1.75
2022-09-10T02:10:05.034Z,1.88
2022-09-10T02:12:32.341Z,2.83
2022-09-10T02:14:59.299Z,1.92
2022-09-10T02:17:33.686Z,2.25
2022-09-10T02:20:05.024Z,3.67
2022-09-10T02:22:36.502Z,3.22
2022-09-10T02:25:05.058Z,2.63
2022-09-10T02:27:36.567Z,0.80
2022-09-10T02:30:06.063Z,4.45
2022-09-10T02:32:33.236Z,2.38
2022-09-10T02:35:00.002Z,1.38
2022-09-10T02:37:26.684Z,3.53
2022-09-10T02:39:53.728Z,3.88
2022-09-10T02:42:21.417Z,1.33
2022-09-10T02:44:48.587Z,3.65
2022-09-10T02:47:15.396Z,2.85
2022-09-10T02:49:43.251Z,1.67
2022-09-10T02:52:10.020Z,3.58
2022-09-10T02:54:36.722Z,2.95
2022-09-10T02:57:03.708Z,1.48
2022-09-10T02:59:32.808Z,4.75
2022-09-10T03:02:03.612Z,2.25
2022-09-10T03:04:31.577Z,2.10
2022-09-10T03:06:59.514Z,2.30
2022-09-10T03:09:29.047Z,1.42
2022-09-10T03:11:56.160Z,2.22
2022-09-10T03:14:25.025Z,1.27
2022-09-10T03:16:52.919Z,2.92
2022-09-10T03:19:24.770Z,2.50
2022-09-10T03:21:53.072Z,2.38
2022-09-10T03:24:20.027Z,1.30
2022-09-10T03:26:46.802Z,1.55
2022-09-10T03:29:14.180Z,1.95
2022-09-10T03:31:41.896Z,2.03
2022-09-10T03:34:11.067Z,2.67
2022-09-10T03:36:37.817Z,3.55
2022-09-10T03:39:06.170Z,1.42
2022-09-10T03:41:33.235Z,2.50
2022-09-10T03:44:00.002Z,3.08
2022-09-10T03:46:26.771Z,2.63
2022-09-10T03:48:55.527Z,2.80
2022-09-10T03:51:23.302Z,3.10
2022-09-10T03:53:53.259Z,2.47
2022-09-10T03:56:21.008Z,2.95
2022-09-10T03:58:51.756Z,2.20
2022-09-10T04:01:20.129Z,3.63
2022-09-10T04:03:47.735Z,3.15
2022-09-10T04:06:16.387Z,4.65
2022-09-10T04:08:43.709Z,2.38
2022-09-10T04:11:11.023Z,1.33
2022-09-10T04:13:40.643Z,2.65
2022-09-10T04:16:09.892Z,3.00
2022-09-10T04:18:36.713Z,2.05
2022-09-10T04:21:03.743Z,1.88
2022-09-10T04:23:33.250Z,3.85
2022-09-10T04:26:02.574Z,1.45
2022-09-10T04:28:31.040Z,2.13
2022-09-10T04:30:59.770Z,6.30
2022-09-10T04:33:26.461Z,4.35
2022-09-10T04:35:53.226Z,2.55
2022-09-10T04:38:21.960Z,3.78
2022-09-10T04:40:49.704Z,3.58
2022-09-10T04:43:16.996Z,2.90
2022-09-10T04:45:45.807Z,3.30
2022-09-10T04:48:14.664Z,2.25
2022-09-10T04:50:59.414Z,4.55
2022-09-10T04:53:28.497Z,2.40
2022-09-10T04:55:55.928Z,1.15
2022-09-10T04:58:23.269Z,3.25
2022-09-10T05:00:50.450Z,1.95
2022-09-10T05:03:17.261Z,3.28
2022-09-10T05:05:44.402Z,3.63
2022-09-10T05:08:12.852Z,2.22
2022-09-10T05:10:41.707Z,3.88
2022-09-10T05:13:09.084Z,1.63
2022-09-10T05:15:41.783Z,1.48
2022-09-10T05:18:08.549Z,2.17
2022-09-10T05:20:36.099Z,3.08
2022-09-10T05:23:02.889Z,2.22
2022-09-10T05:25:29.851Z,2.15
2022-09-10T05:27:56.610Z,2.05
2022-09-10T05:30:26.699Z,1.60
2022-09-10T05:32:53.667Z,1.35
2022-09-10T05:35:20.733Z,3.63
2022-09-10T05:37:47.477Z,3.65
2022-09-10T05:40:16.112Z,3.58
2022-09-10T05:42:43.998Z,1.50
2022-09-10T05:45:10.940Z,1.08
2022-09-10T05:47:38.195Z,3.58
2022-09-10T05:50:05.924Z,2.05
2022-09-10T05:52:33.032Z,3.38
2022-09-10T05:54:59.904Z,1.38
2022-09-10T05:57:26.904Z,2.78
2022-09-10T05:59:55.247Z,1.48
2022-09-10T06:02:24.422Z,2.03
2022-09-10T06:04:51.361Z,3.90
2022-09-10T06:07:21.807Z,3.70
2022-09-10T06:09:48.654Z,2.63
2022-09-10T06:12:17.570Z,2.08
2022-09-10T06:14:44.357Z,3.20
2022-09-10T06:17:16.590Z,3.85
2022-09-10T06:19:44.635Z,1.48
2022-09-10T06:22:12.845Z,3.50
2022-09-10T06:24:39.686Z,2.13
2022-09-10T06:27:08.014Z,1.17
2022-09-10T06:29:37.192Z,1.50
2022-09-10T06:32:06.695Z,0.82
2022-09-10T06:34:33.435Z,1.50
2022-09-10T06:37:03.417Z,1.17
2022-09-10T06:39:36.281Z,1.20
2022-09-10T06:42:03.171Z,2.55
2022-09-10T06:44:30.124Z,3.17
2022-09-10T06:47:45.979Z,0.80
2022-09-10T06:49:47.538Z,0.40
2022-09-10T06:52:14.292Z,5.03
2022-09-10T06:54:43.134Z,0.52
2022-09-10T06:57:10.691Z,0.68
2022-09-10T06:59:39.656Z,0.68
2022-09-10T07:02:06.583Z,0.70
2022-09-10T07:04:34.875Z,0.40
2022-09-10T07:07:04.195Z,0.40
2022-09-10T07:09:31.212Z,0.88
2022-09-10T07:11:58.577Z,0.65
2022-09-10T07:14:25.559Z,0.68
2022-09-10T07:16:53.495Z,2.30
2022-09-10T07:19:20.882Z,1.48
2022-09-10T07:21:48.729Z,3.17
2022-09-10T07:24:15.725Z,1.50
2022-09-10T07:26:42.515Z,0.85
2022-09-10T07:29:09.914Z,0.38
2022-09-10T07:31:38.306Z,0.63
2022-09-10T07:34:08.282Z,3.33
2022-09-10T07:36:35.126Z,0.60
2022-09-10T07:39:03.933Z,0.45
2022-09-10T07:41:34.012Z,2.63
2022-09-10T07:44:02.133Z,0.55
2022-09-10T07:46:28.896Z,1.17
2022-09-10T07:49:01.096Z,1.50
2022-09-10T07:51:33.119Z,1.80
2022-09-10T07:54:01.674Z,0.52
2022-09-10T07:56:32.352Z,1.65
2022-09-10T07:59:02.740Z,1.80
2022-09-10T08:01:29.748Z,1.40
2022-09-10T08:04:04.248Z,1.88
2022-09-10T08:06:32.310Z,1.17
2022-09-10T08:09:00.688Z,1.63
2022-09-10T08:12:16.088Z,0.77
2022-09-10T08:14:45.704Z,1.38
2022-09-10T08:17:13.766Z,1.05
2022-09-10T08:19:41.749Z,1.50
2022-09-10T08:22:13.251Z,4.32
2022-09-10T08:24:40.685Z,1.98
2022-09-10T08:32:47.214Z,2.75
2022-09-10T08:35:16.129Z,1.45
2022-09-10T08:37:43.719Z,2.58
2022-09-10T08:40:13.383Z,3.30
2022-09-10T08:42:49.310Z,5.18
2022-09-10T08:45:30.291Z,1.30
2022-09-10T08:48:18.709Z,2.75
2022-09-10T08:51:09.348Z,2.08
2022-09-10T08:53:57.321Z,2.60
2022-09-10T08:56:24.878Z,2.60
2022-09-10T08:59:03.192Z,4.03
2022-09-10T09:02:10.097Z,2.55
2022-09-10T09:04:46.013Z,5.10
2022-09-10T09:07:20.019Z,2.35
2022-09-10T09:09:51.507Z,4.00
2022-09-10T09:12:32.386Z,2.13
2022-09-10T09:15:04.744Z,5.18
2022-09-10T09:17:40.846Z,3.90
2022-09-10T09:20:44.730Z,4.00
2022-09-10T09:23:19.598Z,3.15
2022-09-10T09:25:57.854Z,3.33
2022-09-10T09:28:39.287Z,4.38
2022-09-10T09:31:14.338Z,2.25
2022-09-10T09:33:45.945Z,1.85
2022-09-10T09:36:32.111Z,2.10
2022-09-10T09:39:02.219Z,3.05
2022-09-10T09:41:37.418Z,1.48
2022-09-10T09:44:24.744Z,2.38
2022-09-10T09:46:54.113Z,4.22
2022-09-10T09:49:21.185Z,3.22
2022-09-10T09:51:50.080Z,1.33
2022-09-10T09:55:10.251Z,3.35
2022-09-10T09:57:19.622Z,3.38
2022-09-10T09:59:48.921Z,3.65
2022-09-10T10:02:24.811Z,2.42
2022-09-10T10:05:18.030Z,2.00
2022-09-10T10:07:48.474Z,3.28
2022-09-10T10:10:24.901Z,2.10
2022-09-10T10:12:53.920Z,2.53
2022-09-10T10:15:42.794Z,4.35
2022-09-10T10:18:31.922Z,5.07
2022-09-10T10:21:20.173Z,2.90
2022-09-10T10:23:48.429Z,2.10
2022-09-10T10:26:21.311Z,2.53
2022-09-10T10:29:21.256Z,1.75
2022-09-10T10:31:50.410Z,1.80
2022-09-10T10:34:17.414Z,3.17
2022-09-10T10:37:03.953Z,4.00
2022-09-10T10:39:51.151Z,2.95
2022-09-10T10:42:54.175Z,5.47
2022-09-10T10:45:55.884Z,2.38
2022-09-10T10:48:41.500Z,3.63
2022-09-10T10:51:42.047Z,3.70
2022-09-10T10:54:42.711Z,6.18
2022-09-10T10:57:39.111Z,2.88
2022-09-10T11:00:17.731Z,4.00
2022-09-10T11:03:23.254Z,3.92
2022-09-10T11:05:54.938Z,4.25
2022-09-10T11:08:32.742Z,4.05
2022-09-10T11:11:06.477Z,5.82
2022-09-10T11:13:46.303Z,7.20
2022-09-10T11:16:20.230Z,7.20
2022-09-10T11:21:33.365Z,2.70
2022-09-10T11:24:16.823Z,8.23
2022-09-10T11:27:15.073Z,2.83
2022-09-10T11:30:10.156Z,3.67
2022-09-10T11:32:52.712Z,3.10
2022-09-10T11:35:29.197Z,3.97
2022-09-10T11:38:14.608Z,4.72
2022-09-10T11:41:06.680Z,4.68
2022-09-10T11:43:38.236Z,4.25
2022-09-10T11:46:12.940Z,7.53
2022-09-10T11:48:47.367Z,6.10
2022-09-10T11:51:26.195Z,3.50
2022-09-10T11:53:54.839Z,3.83
2022-09-10T11:56:24.512Z,4.32
2022-09-10T11:59:09.977Z,5.72
2022-09-10T12:02:16.506Z,2.95
2022-09-10T12:05:27.961Z,7.30
2022-09-10T12:08:14.234Z,3.55
2022-09-10T12:11:14.041Z,3.20
2022-09-10T12:13:42.578Z,3.17
2022-09-10T12:16:38.968Z,4.47
2022-09-10T12:19:16.040Z,3.47
2022-09-10T12:21:50.483Z,3.40
2022-09-10T12:24:32.350Z,4.40
2022-09-10T12:27:01.423Z,4.63
2022-09-10T12:29:37.221Z,4.80
2022-09-10T12:32:19.104Z,3.80
2022-09-10T12:34:48.459Z,2.35
2022-09-10T12:37:22.079Z,3.33
2022-09-10T12:40:13.007Z,5.38
2022-09-10T12:42:42.688Z,5.45
2022-09-10T12:45:09.777Z,3.67
2022-09-10T12:47:46.829Z,1.67
2022-09-10T12:50:28.052Z,4.10
2022-09-10T12:53:15.163Z,5.75
2022-09-10T12:56:23.201Z,5.18
2022-09-10T12:59:02.083Z,3.40
2022-09-10T13:01:40.286Z,4.78
2022-09-10T13:04:29.447Z,4.00
2022-09-10T13:07:04.962Z,3.15
2022-09-10T13:09:40.671Z,3.10
2022-09-10T13:12:19.631Z,4.80
2022-09-10T13:14:50.343Z,2.70
2022-09-10T13:17:37.533Z,2.25
2022-09-10T13:20:35.494Z,4.93
2022-09-10T13:23:21.361Z,3.47
2022-09-10T13:25:50.100Z,4.70
2022-09-10T13:28:29.089Z,4.18
2022-09-10T13:31:14.259Z,3.80
2022-09-10T13:34:18.048Z,4.40
2022-09-10T13:36:57.032Z,4.75
2022-09-10T13:39:48.414Z,7.38
2022-09-10T13:42:36.915Z,5.18
2022-09-10T13:45:25.005Z,10.07
2022-09-10T13:48:15.128Z,4.18
2022-09-10T13:51:19.395Z,5.97
2022-09-10T13:53:49.089Z,4.90
2022-09-10T13:56:25.633Z,2.95
2022-09-10T13:58:57.525Z,5.88
2022-09-10T14:01:53.982Z,5.57
2022-09-10T14:04:27.914Z,2.78
2022-09-10T14:09:25.242Z,5.78
2022-09-10T14:11:52.316Z,6.55
2022-09-10T14:14:23.656Z,4.20
2022-09-10T14:16:59.990Z,5.93
2022-09-10T14:19:34.302Z,4.38
2022-09-10T14:22:01.705Z,4.60
2022-09-10T14:24:45.612Z,3.55
2022-09-10T14:27:32.535Z,5.80
2022-09-10T14:30:18.441Z,5.63
2022-09-10T14:32:48.366Z,3.97
2022-09-10T14:35:37.494Z,5.20
2022-09-10T14:38:20.556Z,4.53
2022-09-10T14:40:47.986Z,6.57
2022-09-10T14:43:17.012Z,3.92
2022-09-10T14:45:49.735Z,3.22
2022-09-10T14:48:30.278Z,2.78
2022-09-10T14:51:13.510Z,4.05
2022-09-10T14:53:41.909Z,2.78
2022-09-10T14:56:31.223Z,2.90
2022-09-10T14:59:04.115Z,2.85
2022-09-10T15:01:32.956Z,4.70
2022-09-10T15:03:59.963Z,2.45
2022-09-10T15:06:27.001Z,4.55
2022-09-10T15:08:56.823Z,12.63
2022-09-10T15:11:26.725Z,3.13
2022-09-10T15:13:59.453Z,3.25
2022-09-10T15:16:26.524Z,5.07
2022-09-10T15:19:00.818Z,4.13
2022-09-10T15:21:30.966Z,2.95
2022-09-10T15:23:57.710Z,6.32
2022-09-10T15:26:27.833Z,4.35
2022-09-10T15:28:55.545Z,3.28
2022-09-10T15:31:28.443Z,2.10
2022-09-10T15:33:58.234Z,1.98
2022-09-10T15:36:26.339Z,3.15
2022-09-10T15:38:53.147Z,2.78
2022-09-10T15:41:20.631Z,6.45
2022-09-10T15:43:48.076Z,3.35
2022-09-10T15:46:17.220Z,3.53
2022-09-10T15:48:45.137Z,4.85
2022-09-10T15:51:21.373Z,3.15
2022-09-10T15:53:49.630Z,3.30
2022-09-10T15:56:18.857Z,4.78
2022-09-10T15:58:55.116Z,4.50
2022-09-10T16:01:22.631Z,3.20
2022-09-10T16:03:58.274Z,2.05
2022-09-10T16:06:33.299Z,3.45
2022-09-10T16:09:04.056Z,2.67
2022-09-10T16:11:33.551Z,7.03
2022-09-10T16:14:16.353Z,1.70
2022-09-10T16:16:46.625Z,4.30
2022-09-10T16:19:16.572Z,3.08
2022-09-10T16:21:46.088Z,3.38
2022-09-10T16:24:13.510Z,5.38
2022-09-10T16:26:43.619Z,3.78
2022-09-10T16:29:16.553Z,2.53
2022-09-10T16:31:48.146Z,3.67
2022-09-10T16:34:20.273Z,4.05
2022-09-10T16:36:57.069Z,2.88
2022-09-10T16:39:23.905Z,2.60
2022-09-10T16:41:51.299Z,4.88
2022-09-10T16:44:25.348Z,3.38
2022-09-10T16:46:52.561Z,2.75
2022-09-10T16:49:20.071Z,3.97
2022-09-10T16:51:49.484Z,5.32
2022-09-10T16:54:19.941Z,4.72
2022-09-10T16:56:48.191Z,6.35
2022-09-10T16:59:19.593Z,4.95
2022-09-10T17:01:48.368Z,6.80
2022-09-10T17:04:24.579Z,4.65
2022-09-10T17:06:55.477Z,6.32
2022-09-10T17:09:24.901Z,3.05
2022-09-10T17:11:51.789Z,4.55
2022-09-10T17:14:19.670Z,4.85
2022-09-10T17:16:48.410Z,2.60
2022-09-10T17:19:21.299Z,5.45
2022-09-10T17:21:53.113Z,6.45
2022-09-10T17:24:22.574Z,3.85
2022-09-10T17:26:51.207Z,3.72
2022-09-10T17:29:24.855Z,3.72
2022-09-10T17:31:52.163Z,8.40
2022-09-10T17:34:24.582Z,5.55
2022-09-10T17:36:51.459Z,5.15
2022-09-10T17:39:18.478Z,4.93
2022-09-10T17:41:46.396Z,2.97
2022-09-10T17:44:13.764Z,4.25
2022-09-10T17:46:42.734Z,4.78
2022-09-10T17:49:12.722Z,6.28
2022-09-10T17:51:39.582Z,3.03
2022-09-10T17:54:08.271Z,3.38
2022-09-10T17:56:36.251Z,3.33
2022-09-10T17:59:04.568Z,1.73
2022-09-10T18:01:37.888Z,9.60
2022-09-10T18:04:06.205Z,5.75
2022-09-10T18:06:35.818Z,3.65
2022-09-10T18:09:02.847Z,7.97
2022-09-10T18:11:32.365Z,4.15
2022-09-10T18:14:00.348Z,4.63
2022-09-10T18:16:31.221Z,4.03
2022-09-10T18:19:03.344Z,5.78
2022-09-10T18:21:35.534Z,3.38
2022-09-10T18:24:11.025Z,3.47
2022-09-10T18:26:40.252Z,5.07
2022-09-10T18:29:11.239Z,4.60
2022-09-10T18:31:41.264Z,4.03
2022-09-10T18:34:11.246Z,5.45
2022-09-10T18:36:39.545Z,3.72
2022-09-10T18:39:10.884Z,4.03
2022-09-10T18:41:41.454Z,6.57
2022-09-10T18:44:20.753Z,4.53
2022-09-10T18:46:49.303Z,4.18
2022-09-10T18:49:21.004Z,7.07
2022-09-10T18:51:48.834Z,3.80
2022-09-10T18:54:17.217Z,4.05
2022-09-10T18:56:45.098Z,7.55
2022-09-10T18:59:15.310Z,6.35
2022-09-10T19:01:43.892Z,6.72
2022-09-10T19:04:13.607Z,7.40
2022-09-10T19:06:42.582Z,5.85
2022-09-10T19:09:14.825Z,4.35
2022-09-10T19:11:43.900Z,6.00
2022-09-10T19:14:18.075Z,5.78
2022-09-10T19:16:46.308Z,5.57
2022-09-10T19:19:18.862Z,6.05
2022-09-10T19:21:46.883Z,6.90
2022-09-10T19:24:16.194Z,6.95
2022-09-10T19:26:43.530Z,3.20
2022-09-10T19:29:12.685Z,7.10
2022-09-10T19:31:41.041Z,5.72
2022-09-10T19:34:09.653Z,7.40
2022-09-10T19:36:37.193Z,5.78
2022-09-10T19:39:08.652Z,6.80
2022-09-10T19:41:39.092Z,6.97
2022-09-10T19:44:07.792Z,5.18
2022-09-10T19:46:38.862Z,9.02
2022-09-10T19:49:08.575Z,5.63
2022-09-10T19:51:37.681Z,6.70
2022-09-10T19:54:06.671Z,6.95
2022-09-10T19:56:39.644Z,6.97
2022-09-10T19:59:08.797Z,7.95
2022-09-10T20:01:38.661Z,7.07
2022-09-10T20:04:07.540Z,5.75
2022-09-10T20:06:35.838Z,4.78
2022-09-10T20:09:04.548Z,5.80
2022-09-10T20:11:33.116Z,7.45
2022-09-10T20:14:07.985Z,7.60
2022-09-10T20:16:39.582Z,7.32
2022-09-10T20:19:07.509Z,7.70
2022-09-10T20:21:36.101Z,4.88
2022-09-10T20:24:05.635Z,7.15
2022-09-10T20:26:34.414Z,7.53
2022-09-10T20:29:07.583Z,6.38
2022-09-10T20:31:36.465Z,9.80
2022-09-10T20:34:06.554Z,6.88
2022-09-10T20:36:35.023Z,5.18
2022-09-10T20:39:03.706Z,7.20
2022-09-10T20:41:30.810Z,7.63
2022-09-10T20:43:59.693Z,7.38
2022-09-10T20:46:28.788Z,8.45
2022-09-10T20:49:02.953Z,8.60
2022-09-10T20:51:32.873Z,8.98
2022-09-10T20:54:00.128Z,7.22
2022-09-10T20:56:27.099Z,7.45
2022-09-10T20:58:54.058Z,8.55
2022-09-10T21:01:26.775Z,7.20
2022-09-10T21:03:56.348Z,9.25
2022-09-10T21:06:26.352Z,7.07
2022-09-10T21:08:56.059Z,9.40
2022-09-10T21:11:24.322Z,4.82
2022-09-10T21:13:56.255Z,7.05
2022-09-10T21:16:24.861Z,7.22
2022-09-10T21:18:55.883Z,7.07
2022-09-10T21:21:28.046Z,8.38
2022-09-10T21:23:57.097Z,7.95
2022-09-10T21:26:29.761Z,6.90
2022-09-10T21:29:02.516Z,7.05
2022-09-10T21:31:30.533Z,7.10
2022-09-10T21:34:03.344Z,7.93
2022-09-10T21:36:31.920Z,7.90
2022-09-10T21:39:01.872Z,7.47
2022-09-10T21:41:33.037Z,7.30
2022-09-10T21:44:01.884Z,8.80
2022-09-10T21:46:29.976Z,7.05
2022-09-10T21:48:56.901Z,8.48
2022-09-10T21:51:24.109Z,8.73
2022-09-10T21:54:06.600Z,8.20
2022-09-10T21:56:34.423Z,6.32
2022-09-10T21:59:04.112Z,7.47
2022-09-10T22:01:36.998Z,5.90
2022-09-10T22:04:07.785Z,5.90
2022-09-10T22:06:36.672Z,5.55
2022-09-10T22:09:15.028Z,9.07
2022-09-10T22:14:31.130Z,8.15
2022-09-10T22:17:06.310Z,7.38
2022-09-10T22:19:41.670Z,7.22
2022-09-10T22:22:12.819Z,7.63
2022-09-10T22:24:40.663Z,9.07
2022-09-10T22:27:07.507Z,6.18
2022-09-10T22:29:34.226Z,6.43
2022-09-10T22:32:01.023Z,8.60
2022-09-10T22:34:28.888Z,8.63
2022-09-10T22:36:55.579Z,6.00
2022-09-10T22:39:22.655Z,9.18
2022-09-10T22:41:50.799Z,9.18
2022-09-10T22:44:18.401Z,7.32
2022-09-10T22:46:45.198Z,7.47
2022-09-10T22:49:12.016Z,7.70
2022-09-10T22:51:41.103Z,11.70
2022-09-10T22:54:09.062Z,9.25
2022-09-10T22:56:37.137Z,7.22
2022-09-10T22:59:04.655Z,7.22
2022-09-10T23:01:35.517Z,7.97
2022-09-10T23:04:03.239Z,9.48
2022-09-10T23:06:33.172Z,6.75
2022-09-10T23:09:12.119Z,6.32
2022-09-10T23:11:42.457Z,8.65
2022-09-10T23:14:13.502Z,5.63
2022-09-10T23:16:44.018Z,7.90
2022-09-10T23:19:15.925Z,7.47
2022-09-10T23:21:45.633Z,6.93
2022-09-10T23:24:15.225Z,7.03
2022-09-10T23:26:43.101Z,6.50
2022-09-10T23:29:11.259Z,8.02
2022-09-10T23:31:39.559Z,8.77
2022-09-10T23:34:09.996Z,8.35
2022-09-10T23:36:43.579Z,8.70
2022-09-10T23:39:23.257Z,9.77
2022-09-10T23:41:52.444Z,7.35
2022-09-10T23:44:20.528Z,10.30
2022-09-10T23:46:48.051Z,7.65
2022-09-10T23:49:16.025Z,7.88
2022-09-10T23:51:44.174Z,9.80
2022-09-10T23:54:11.334Z,9.98
2022-09-10T23:56:38.103Z,10.88
2022-09-10T23:59:06.200Z,9.65
